sensor_id;sensor_type;location;lat;lon;timestamp;temperature;humidity
18177;DHT22;9213;50.858;3.964;2023-06-26T00:00:08;26.80;37.60
18177;DHT22;9213;50.858;3.964;2023-06-26T00:02:36;26.70;37.90
18177;DHT22;9213;50.858;3.964;2023-06-26T00:05:04;26.60;37.80
18177;DHT22;9213;50.858;3.964;2023-06-26T00:07:31;26.60;37.80
18177;DHT22;9213;50.858;3.964;2023-06-26T00:09:59;26.50;37.70
18177;DHT22;9213;50.858;3.964;2023-06-26T00:12:27;26.40;37.40
18177;DHT22;9213;50.858;3.964;2023-06-26T00:14:54;26.40;37.50
18177;DHT22;9213;50.858;3.964;2023-06-26T00:17:22;26.30;37.40
18177;DHT22;9213;50.858;3.964;2023-06-26T00:19:51;26.30;37.40
18177;DHT22;9213;50.858;3.964;2023-06-26T00:22:18;26.20;37.40
18177;DHT22;9213;50.858;3.964;2023-06-26T00:24:45;26.20;37.60
18177;DHT22;9213;50.858;3.964;2023-06-26T00:27:12;26.20;37.70
18177;DHT22;9213;50.858;3.964;2023-06-26T00:29:40;26.10;37.80
18177;DHT22;9213;50.858;3.964;2023-06-26T00:32:07;26.10;37.80
18177;DHT22;9213;50.858;3.964;2023-06-26T00:34:34;26.10;38.00
18177;DHT22;9213;50.858;3.964;2023-06-26T00:37:01;26.10;38.20
18177;DHT22;9213;50.858;3.964;2023-06-26T00:39:29;26.10;38.40
18177;DHT22;9213;50.858;3.964;2023-06-26T00:41:56;26.00;38.70
18177;DHT22;9213;50.858;3.964;2023-06-26T00:44:23;26.00;38.70
18177;DHT22;9213;50.858;3.964;2023-06-26T00:46:51;26.00;38.80
18177;DHT22;9213;50.858;3.964;2023-06-26T00:49:18;26.00;38.90
18177;DHT22;9213;50.858;3.964;2023-06-26T00:51:46;25.90;38.60
18177;DHT22;9213;50.858;3.964;2023-06-26T00:54:13;25.90;38.60
18177;DHT22;9213;50.858;3.964;2023-06-26T00:56:45;25.90;38.80
18177;DHT22;9213;50.858;3.964;2023-06-26T00:59:13;25.90;39.10
18177;DHT22;9213;50.858;3.964;2023-06-26T01:01:40;25.90;39.20
18177;DHT22;9213;50.858;3.964;2023-06-26T01:04:09;25.80;39.50
18177;DHT22;9213;50.858;3.964;2023-06-26T01:06:43;25.80;39.60
18177;DHT22;9213;50.858;3.964;2023-06-26T01:09:15;25.80;39.80
18177;DHT22;9213;50.858;3.964;2023-06-26T01:11:43;25.70;40.10
18177;DHT22;9213;50.858;3.964;2023-06-26T01:14:10;25.70;40.20
18177;DHT22;9213;50.858;3.964;2023-06-26T01:16:37;25.60;40.40
18177;DHT22;9213;50.858;3.964;2023-06-26T01:19:11;25.60;40.60
18177;DHT22;9213;50.858;3.964;2023-06-26T01:21:43;25.60;40.80
18177;DHT22;9213;50.858;3.964;2023-06-26T01:24:16;25.60;40.90
18177;DHT22;9213;50.858;3.964;2023-06-26T01:26:49;25.60;41.30
18177;DHT22;9213;50.858;3.964;2023-06-26T01:29:18;25.50;41.70
18177;DHT22;9213;50.858;3.964;2023-06-26T01:31:46;25.50;41.90
18177;DHT22;9213;50.858;3.964;2023-06-26T01:34:15;25.40;42.20
18177;DHT22;9213;50.858;3.964;2023-06-26T01:36:42;25.30;42.40
18177;DHT22;9213;50.858;3.964;2023-06-26T01:39:10;25.30;42.70
18177;DHT22;9213;50.858;3.964;2023-06-26T01:41:37;25.30;43.00
18177;DHT22;9213;50.858;3.964;2023-06-26T01:44:14;25.20;43.30
18177;DHT22;9213;50.858;3.964;2023-06-26T01:46:54;25.20;43.60
18177;DHT22;9213;50.858;3.964;2023-06-26T01:49:33;25.20;43.70
18177;DHT22;9213;50.858;3.964;2023-06-26T01:52:08;25.10;43.90
18177;DHT22;9213;50.858;3.964;2023-06-26T01:54:39;25.10;44.00
18177;DHT22;9213;50.858;3.964;2023-06-26T01:57:10;25.10;44.30
18177;DHT22;9213;50.858;3.964;2023-06-26T01:59:40;25.10;44.40
18177;DHT22;9213;50.858;3.964;2023-06-26T02:02:08;25.10;44.70
18177;DHT22;9213;50.858;3.964;2023-06-26T02:04:35;25.10;44.70
18177;DHT22;9213;50.858;3.964;2023-06-26T02:07:03;25.10;44.90
18177;DHT22;9213;50.858;3.964;2023-06-26T02:09:30;25.00;45.80
18177;DHT22;9213;50.858;3.964;2023-06-26T02:11:57;25.00;45.10
18177;DHT22;9213;50.858;3.964;2023-06-26T02:14:24;25.00;45.20
18177;DHT22;9213;50.858;3.964;2023-06-26T02:16:52;25.00;45.30
18177;DHT22;9213;50.858;3.964;2023-06-26T02:19:19;25.00;45.60
18177;DHT22;9213;50.858;3.964;2023-06-26T02:21:47;24.90;45.90
18177;DHT22;9213;50.858;3.964;2023-06-26T02:24:14;24.90;45.90
18177;DHT22;9213;50.858;3.964;2023-06-26T02:26:41;24.80;46.10
18177;DHT22;9213;50.858;3.964;2023-06-26T02:29:08;24.80;46.40
18177;DHT22;9213;50.858;3.964;2023-06-26T02:31:35;24.70;46.60
18177;DHT22;9213;50.858;3.964;2023-06-26T02:34:03;24.60;46.70
18177;DHT22;9213;50.858;3.964;2023-06-26T02:36:30;24.60;47.10
18177;DHT22;9213;50.858;3.964;2023-06-26T02:38:57;24.50;47.30
18177;DHT22;9213;50.858;3.964;2023-06-26T02:41:24;24.40;47.60
18177;DHT22;9213;50.858;3.964;2023-06-26T02:43:51;24.30;48.00
18177;DHT22;9213;50.858;3.964;2023-06-26T02:46:18;24.20;47.90
18177;DHT22;9213;50.858;3.964;2023-06-26T02:48:45;24.20;48.20
18177;DHT22;9213;50.858;3.964;2023-06-26T02:51:13;24.10;48.40
18177;DHT22;9213;50.858;3.964;2023-06-26T02:53:40;24.10;48.60
18177;DHT22;9213;50.858;3.964;2023-06-26T02:56:07;24.10;48.60
18177;DHT22;9213;50.858;3.964;2023-06-26T02:58:34;24.00;48.60
18177;DHT22;9213;50.858;3.964;2023-06-26T03:01:01;24.00;48.70
18177;DHT22;9213;50.858;3.964;2023-06-26T03:03:28;23.90;48.70
18177;DHT22;9213;50.858;3.964;2023-06-26T03:05:54;23.90;48.80
18177;DHT22;9213;50.858;3.964;2023-06-26T03:08:24;23.90;49.00
18177;DHT22;9213;50.858;3.964;2023-06-26T03:10:51;23.80;49.10
18177;DHT22;9213;50.858;3.964;2023-06-26T03:13:17;23.80;49.20
18177;DHT22;9213;50.858;3.964;2023-06-26T03:15:44;23.70;49.20
18177;DHT22;9213;50.858;3.964;2023-06-26T03:18:11;23.60;49.30
18177;DHT22;9213;50.858;3.964;2023-06-26T03:20:38;23.60;49.40
18177;DHT22;9213;50.858;3.964;2023-06-26T03:23:05;23.50;49.50
18177;DHT22;9213;50.858;3.964;2023-06-26T03:25:33;23.50;49.50
18177;DHT22;9213;50.858;3.964;2023-06-26T03:28:00;23.50;49.60
18177;DHT22;9213;50.858;3.964;2023-06-26T03:30:27;23.50;49.60
18177;DHT22;9213;50.858;3.964;2023-06-26T03:32:54;23.40;49.60
18177;DHT22;9213;50.858;3.964;2023-06-26T03:35:21;23.40;49.60
18177;DHT22;9213;50.858;3.964;2023-06-26T03:37:49;23.30;49.70
18177;DHT22;9213;50.858;3.964;2023-06-26T03:40:16;23.30;50.50
18177;DHT22;9213;50.858;3.964;2023-06-26T03:42:44;23.20;49.70
18177;DHT22;9213;50.858;3.964;2023-06-26T03:45:11;23.20;49.70
18177;DHT22;9213;50.858;3.964;2023-06-26T03:47:38;23.20;49.70
18177;DHT22;9213;50.858;3.964;2023-06-26T03:50:06;23.20;49.60
18177;DHT22;9213;50.858;3.964;2023-06-26T03:52:32;23.10;49.70
18177;DHT22;9213;50.858;3.964;2023-06-26T03:55:00;23.10;49.60
18177;DHT22;9213;50.858;3.964;2023-06-26T03:57:28;23.00;49.50
18177;DHT22;9213;50.858;3.964;2023-06-26T03:59:56;23.00;49.50
18177;DHT22;9213;50.858;3.964;2023-06-26T04:02:23;23.00;49.60
18177;DHT22;9213;50.858;3.964;2023-06-26T04:04:50;23.00;49.60
18177;DHT22;9213;50.858;3.964;2023-06-26T04:07:17;23.00;49.60
18177;DHT22;9213;50.858;3.964;2023-06-26T04:09:45;22.90;49.70
18177;DHT22;9213;50.858;3.964;2023-06-26T04:12:12;22.90;49.50
18177;DHT22;9213;50.858;3.964;2023-06-26T04:14:39;22.90;49.50
18177;DHT22;9213;50.858;3.964;2023-06-26T04:17:07;22.90;49.40
18177;DHT22;9213;50.858;3.964;2023-06-26T04:19:34;22.90;49.40
18177;DHT22;9213;50.858;3.964;2023-06-26T04:22:01;22.80;49.30
18177;DHT22;9213;50.858;3.964;2023-06-26T04:24:28;22.80;49.30
18177;DHT22;9213;50.858;3.964;2023-06-26T04:26:55;22.80;49.10
18177;DHT22;9213;50.858;3.964;2023-06-26T04:29:22;22.80;48.90
18177;DHT22;9213;50.858;3.964;2023-06-26T04:31:51;22.80;48.90
18177;DHT22;9213;50.858;3.964;2023-06-26T04:34:19;22.80;48.80
18177;DHT22;9213;50.858;3.964;2023-06-26T04:36:46;22.80;48.60
18177;DHT22;9213;50.858;3.964;2023-06-26T04:39:13;22.80;48.60
18177;DHT22;9213;50.858;3.964;2023-06-26T04:41:41;22.80;48.30
18177;DHT22;9213;50.858;3.964;2023-06-26T04:44:08;22.80;48.10
18177;DHT22;9213;50.858;3.964;2023-06-26T04:46:36;22.90;47.90
18177;DHT22;9213;50.858;3.964;2023-06-26T04:49:03;22.90;47.80
18177;DHT22;9213;50.858;3.964;2023-06-26T04:51:31;22.90;47.60
18177;DHT22;9213;50.858;3.964;2023-06-26T04:53:58;22.90;47.20
18177;DHT22;9213;50.858;3.964;2023-06-26T04:56:25;22.90;47.00
18177;DHT22;9213;50.858;3.964;2023-06-26T04:58:51;22.90;46.90
18177;DHT22;9213;50.858;3.964;2023-06-26T05:01:19;22.90;47.00
18177;DHT22;9213;50.858;3.964;2023-06-26T05:03:46;23.10;46.80
18177;DHT22;9213;50.858;3.964;2023-06-26T05:06:13;23.30;46.10
18177;DHT22;9213;50.858;3.964;2023-06-26T05:08:41;23.30;45.40
18177;DHT22;9213;50.858;3.964;2023-06-26T05:11:08;23.40;45.30
18177;DHT22;9213;50.858;3.964;2023-06-26T05:13:35;23.40;44.90
18177;DHT22;9213;50.858;3.964;2023-06-26T05:16:02;23.50;44.80
18177;DHT22;9213;50.858;3.964;2023-06-26T05:18:29;23.50;44.60
18177;DHT22;9213;50.858;3.964;2023-06-26T05:20:56;23.40;44.50
18177;DHT22;9213;50.858;3.964;2023-06-26T05:23:25;23.40;44.60
18177;DHT22;9213;50.858;3.964;2023-06-26T05:25:54;23.40;44.20
18177;DHT22;9213;50.858;3.964;2023-06-26T05:28:22;23.40;44.30
18177;DHT22;9213;50.858;3.964;2023-06-26T05:30:50;23.40;44.00
18177;DHT22;9213;50.858;3.964;2023-06-26T05:33:18;23.30;43.90
18177;DHT22;9213;50.858;3.964;2023-06-26T05:35:46;23.30;44.00
18177;DHT22;9213;50.858;3.964;2023-06-26T05:38:13;23.30;43.80
18177;DHT22;9213;50.858;3.964;2023-06-26T05:40:41;23.30;43.40
18177;DHT22;9213;50.858;3.964;2023-06-26T05:43:10;23.30;43.50
18177;DHT22;9213;50.858;3.964;2023-06-26T05:45:37;23.30;43.60
18177;DHT22;9213;50.858;3.964;2023-06-26T05:48:04;23.30;43.20
18177;DHT22;9213;50.858;3.964;2023-06-26T05:50:32;23.30;43.10
18177;DHT22;9213;50.858;3.964;2023-06-26T05:52:59;23.30;43.20
18177;DHT22;9213;50.858;3.964;2023-06-26T05:55:29;23.30;43.10
18177;DHT22;9213;50.858;3.964;2023-06-26T05:57:58;23.40;43.40
18177;DHT22;9213;50.858;3.964;2023-06-26T06:00:28;23.40;43.70
18177;DHT22;9213;50.858;3.964;2023-06-26T06:02:55;23.40;42.90
18177;DHT22;9213;50.858;3.964;2023-06-26T06:05:22;23.50;43.10
18177;DHT22;9213;50.858;3.964;2023-06-26T06:07:49;23.50;42.80
18177;DHT22;9213;50.858;3.964;2023-06-26T06:10:16;23.60;42.70
18177;DHT22;9213;50.858;3.964;2023-06-26T06:12:43;23.70;42.00
18177;DHT22;9213;50.858;3.964;2023-06-26T06:15:10;23.80;42.10
18177;DHT22;9213;50.858;3.964;2023-06-26T06:17:38;23.80;42.00
18177;DHT22;9213;50.858;3.964;2023-06-26T06:20:05;23.90;41.80
18177;DHT22;9213;50.858;3.964;2023-06-26T06:22:33;23.90;41.30
18177;DHT22;9213;50.858;3.964;2023-06-26T06:25:00;24.00;41.60
18177;DHT22;9213;50.858;3.964;2023-06-26T06:27:27;24.10;41.70
18177;DHT22;9213;50.858;3.964;2023-06-26T06:29:54;24.20;41.30
18177;DHT22;9213;50.858;3.964;2023-06-26T06:32:21;24.40;41.40
18177;DHT22;9213;50.858;3.964;2023-06-26T06:34:49;25.00;40.80
18177;DHT22;9213;50.858;3.964;2023-06-26T06:37:16;26.20;38.50
18177;DHT22;9213;50.858;3.964;2023-06-26T06:39:43;27.60;35.90
18177;DHT22;9213;50.858;3.964;2023-06-26T06:42:10;28.90;33.50
18177;DHT22;9213;50.858;3.964;2023-06-26T06:44:37;30.00;31.90
18177;DHT22;9213;50.858;3.964;2023-06-26T06:47:04;31.30;29.20
18177;DHT22;9213;50.858;3.964;2023-06-26T06:49:31;32.40;27.60
18177;DHT22;9213;50.858;3.964;2023-06-26T06:51:59;33.30;25.80
18177;DHT22;9213;50.858;3.964;2023-06-26T06:54:26;34.00;24.70
18177;DHT22;9213;50.858;3.964;2023-06-26T06:56:54;34.50;23.50
18177;DHT22;9213;50.858;3.964;2023-06-26T06:59:21;34.90;22.80
18177;DHT22;9213;50.858;3.964;2023-06-26T07:01:47;35.10;22.50
18177;DHT22;9213;50.858;3.964;2023-06-26T07:04:14;35.50;22.00
18177;DHT22;9213;50.858;3.964;2023-06-26T07:06:41;36.10;20.80
18177;DHT22;9213;50.858;3.964;2023-06-26T07:09:09;36.30;20.60
18177;DHT22;9213;50.858;3.964;2023-06-26T07:11:36;36.30;20.40
18177;DHT22;9213;50.858;3.964;2023-06-26T07:14:03;36.60;19.90
18177;DHT22;9213;50.858;3.964;2023-06-26T07:16:30;36.80;19.40
18177;DHT22;9213;50.858;3.964;2023-06-26T07:18:57;37.00;19.80
18177;DHT22;9213;50.858;3.964;2023-06-26T07:21:24;37.20;19.50
18177;DHT22;9213;50.858;3.964;2023-06-26T07:23:51;37.40;18.90
18177;DHT22;9213;50.858;3.964;2023-06-26T07:26:19;37.70;18.40
18177;DHT22;9213;50.858;3.964;2023-06-26T07:28:47;37.70;18.30
18177;DHT22;9213;50.858;3.964;2023-06-26T07:31:15;37.80;18.40
18177;DHT22;9213;50.858;3.964;2023-06-26T07:33:42;37.90;18.00
18177;DHT22;9213;50.858;3.964;2023-06-26T07:36:09;37.80;18.10
18177;DHT22;9213;50.858;3.964;2023-06-26T07:38:36;37.70;17.90
18177;DHT22;9213;50.858;3.964;2023-06-26T07:41:03;37.50;18.10
18177;DHT22;9213;50.858;3.964;2023-06-26T07:43:31;37.30;18.80
18177;DHT22;9213;50.858;3.964;2023-06-26T07:45:58;37.40;18.60
18177;DHT22;9213;50.858;3.964;2023-06-26T07:48:26;37.60;18.30
18177;DHT22;9213;50.858;3.964;2023-06-26T07:50:53;37.80;18.30
18177;DHT22;9213;50.858;3.964;2023-06-26T07:53:20;38.10;18.10
18177;DHT22;9213;50.858;3.964;2023-06-26T07:55:46;38.50;17.60
18177;DHT22;9213;50.858;3.964;2023-06-26T07:58:13;38.80;17.00
18177;DHT22;9213;50.858;3.964;2023-06-26T08:00:42;39.00;17.40
18177;DHT22;9213;50.858;3.964;2023-06-26T08:03:09;39.30;17.10
18177;DHT22;9213;50.858;3.964;2023-06-26T08:05:35;39.60;16.40
18177;DHT22;9213;50.858;3.964;2023-06-26T08:08:03;39.60;16.40
18177;DHT22;9213;50.858;3.964;2023-06-26T08:10:29;39.70;15.70
18177;DHT22;9213;50.858;3.964;2023-06-26T08:12:57;39.60;15.90
18177;DHT22;9213;50.858;3.964;2023-06-26T08:15:24;39.50;16.20
18177;DHT22;9213;50.858;3.964;2023-06-26T08:17:52;39.40;16.20
18177;DHT22;9213;50.858;3.964;2023-06-26T08:20:19;39.30;16.20
18177;DHT22;9213;50.858;3.964;2023-06-26T08:22:46;39.30;16.40
18177;DHT22;9213;50.858;3.964;2023-06-26T08:25:14;39.30;16.00
18177;DHT22;9213;50.858;3.964;2023-06-26T08:27:41;39.30;16.60
18177;DHT22;9213;50.858;3.964;2023-06-26T08:30:09;39.40;16.40
18177;DHT22;9213;50.858;3.964;2023-06-26T08:32:36;39.50;16.30
18177;DHT22;9213;50.858;3.964;2023-06-26T08:35:05;39.50;16.20
18177;DHT22;9213;50.858;3.964;2023-06-26T08:37:32;39.40;16.30
18177;DHT22;9213;50.858;3.964;2023-06-26T08:39:59;39.30;16.10
18177;DHT22;9213;50.858;3.964;2023-06-26T08:42:27;39.20;16.60
18177;DHT22;9213;50.858;3.964;2023-06-26T08:44:54;39.10;16.60
18177;DHT22;9213;50.858;3.964;2023-06-26T08:47:21;38.90;16.00
18177;DHT22;9213;50.858;3.964;2023-06-26T08:49:53;38.40;16.70
18177;DHT22;9213;50.858;3.964;2023-06-26T08:52:26;38.00;17.20
18177;DHT22;9213;50.858;3.964;2023-06-26T08:54:57;37.50;17.50
18177;DHT22;9213;50.858;3.964;2023-06-26T08:57:26;37.20;18.20
18177;DHT22;9213;50.858;3.964;2023-06-26T08:59:53;36.90;18.50
18177;DHT22;9213;50.858;3.964;2023-06-26T09:02:21;36.80;18.20
18177;DHT22;9213;50.858;3.964;2023-06-26T09:04:48;37.10;18.10
18177;DHT22;9213;50.858;3.964;2023-06-26T09:07:15;37.40;18.20
18177;DHT22;9213;50.858;3.964;2023-06-26T09:09:44;37.90;17.60
18177;DHT22;9213;50.858;3.964;2023-06-26T09:12:11;38.00;16.40
18177;DHT22;9213;50.858;3.964;2023-06-26T09:14:38;37.90;16.50
18177;DHT22;9213;50.858;3.964;2023-06-26T09:17:05;37.70;16.80
18177;DHT22;9213;50.858;3.964;2023-06-26T09:19:32;37.70;17.30
18177;DHT22;9213;50.858;3.964;2023-06-26T09:21:59;37.90;16.60
18177;DHT22;9213;50.858;3.964;2023-06-26T09:24:26;37.90;16.50
18177;DHT22;9213;50.858;3.964;2023-06-26T09:26:56;37.80;17.10
18177;DHT22;9213;50.858;3.964;2023-06-26T09:29:22;37.90;16.70
18177;DHT22;9213;50.858;3.964;2023-06-26T09:31:51;38.10;17.10
18177;DHT22;9213;50.858;3.964;2023-06-26T09:34:18;38.40;16.10
18177;DHT22;9213;50.858;3.964;2023-06-26T09:36:46;38.50;15.80
18177;DHT22;9213;50.858;3.964;2023-06-26T09:39:14;38.50;15.70
18177;DHT22;9213;50.858;3.964;2023-06-26T09:41:41;38.60;15.30
18177;DHT22;9213;50.858;3.964;2023-06-26T09:44:11;38.70;15.90
18177;DHT22;9213;50.858;3.964;2023-06-26T09:46:39;38.90;15.30
18177;DHT22;9213;50.858;3.964;2023-06-26T09:49:08;38.90;15.10
18177;DHT22;9213;50.858;3.964;2023-06-26T09:51:38;38.60;15.70
18177;DHT22;9213;50.858;3.964;2023-06-26T09:54:06;38.20;16.10
18177;DHT22;9213;50.858;3.964;2023-06-26T09:56:33;37.70;16.50
18177;DHT22;9213;50.858;3.964;2023-06-26T09:59:03;37.40;17.10
18177;DHT22;9213;50.858;3.964;2023-06-26T10:01:32;37.50;16.80
18177;DHT22;9213;50.858;3.964;2023-06-26T10:04:00;37.60;16.60
18177;DHT22;9213;50.858;3.964;2023-06-26T10:06:28;37.80;16.40
18177;DHT22;9213;50.858;3.964;2023-06-26T10:08:59;38.00;16.20
18177;DHT22;9213;50.858;3.964;2023-06-26T10:11:31;38.10;15.40
18177;DHT22;9213;50.858;3.964;2023-06-26T10:13:59;38.40;15.50
18177;DHT22;9213;50.858;3.964;2023-06-26T10:16:28;38.50;15.70
18177;DHT22;9213;50.858;3.964;2023-06-26T10:19:03;38.60;15.30
18177;DHT22;9213;50.858;3.964;2023-06-26T10:21:34;38.60;15.30
18177;DHT22;9213;50.858;3.964;2023-06-26T10:24:02;38.30;15.70
18177;DHT22;9213;50.858;3.964;2023-06-26T10:26:31;37.90;15.50
18177;DHT22;9213;50.858;3.964;2023-06-26T10:29:02;37.70;16.30
18177;DHT22;9213;50.858;3.964;2023-06-26T10:31:30;37.70;16.10
18177;DHT22;9213;50.858;3.964;2023-06-26T10:33:59;37.50;16.30
18177;DHT22;9213;50.858;3.964;2023-06-26T10:36:31;37.10;16.90
18177;DHT22;9213;50.858;3.964;2023-06-26T10:39:03;36.70;17.00
18177;DHT22;9213;50.858;3.964;2023-06-26T10:41:37;36.20;18.10
18177;DHT22;9213;50.858;3.964;2023-06-26T10:44:07;36.00;18.40
18177;DHT22;9213;50.858;3.964;2023-06-26T10:46:48;35.80;18.00
18177;DHT22;9213;50.858;3.964;2023-06-26T10:49:17;35.50;17.90
18177;DHT22;9213;50.858;3.964;2023-06-26T10:51:48;35.10;18.30
18177;DHT22;9213;50.858;3.964;2023-06-26T10:54:16;34.80;18.90
18177;DHT22;9213;50.858;3.964;2023-06-26T10:56:45;34.80;19.20
18177;DHT22;9213;50.858;3.964;2023-06-26T10:59:16;34.90;18.80
18177;DHT22;9213;50.858;3.964;2023-06-26T11:01:45;34.80;18.70
18177;DHT22;9213;50.858;3.964;2023-06-26T11:04:13;34.60;18.70
18177;DHT22;9213;50.858;3.964;2023-06-26T11:06:46;34.60;19.30
18177;DHT22;9213;50.858;3.964;2023-06-26T11:09:17;34.60;19.40
18177;DHT22;9213;50.858;3.964;2023-06-26T11:11:59;34.80;19.60
18177;DHT22;9213;50.858;3.964;2023-06-26T11:14:31;35.00;19.50
18177;DHT22;9213;50.858;3.964;2023-06-26T11:17:01;35.10;18.10
18177;DHT22;9213;50.858;3.964;2023-06-26T11:19:28;35.10;18.10
18177;DHT22;9213;50.858;3.964;2023-06-26T11:22:02;35.20;18.40
18177;DHT22;9213;50.858;3.964;2023-06-26T11:24:30;35.40;17.90
18177;DHT22;9213;50.858;3.964;2023-06-26T11:27:00;35.50;17.40
18177;DHT22;9213;50.858;3.964;2023-06-26T11:29:28;35.50;16.90
18177;DHT22;9213;50.858;3.964;2023-06-26T11:32:03;35.40;17.00
18177;DHT22;9213;50.858;3.964;2023-06-26T11:34:31;35.40;17.20
18177;DHT22;9213;50.858;3.964;2023-06-26T11:37:00;35.30;18.00
18177;DHT22;9213;50.858;3.964;2023-06-26T11:39:28;35.20;18.20
18177;DHT22;9213;50.858;3.964;2023-06-26T11:41:56;35.30;18.10
18177;DHT22;9213;50.858;3.964;2023-06-26T11:44:23;35.30;17.00
18177;DHT22;9213;50.858;3.964;2023-06-26T11:46:54;35.40;17.30
18177;DHT22;9213;50.858;3.964;2023-06-26T11:49:22;35.50;17.30
18177;DHT22;9213;50.858;3.964;2023-06-26T11:51:51;35.50;17.10
18177;DHT22;9213;50.858;3.964;2023-06-26T11:54:25;35.60;17.20
18177;DHT22;9213;50.858;3.964;2023-06-26T11:56:56;35.70;17.20
18177;DHT22;9213;50.858;3.964;2023-06-26T11:59:24;35.70;17.10
18177;DHT22;9213;50.858;3.964;2023-06-26T12:01:51;35.60;17.00
18177;DHT22;9213;50.858;3.964;2023-06-26T12:04:20;35.50;17.10
18177;DHT22;9213;50.858;3.964;2023-06-26T12:06:49;35.40;17.30
18177;DHT22;9213;50.858;3.964;2023-06-26T12:09:18;35.30;17.30
18177;DHT22;9213;50.858;3.964;2023-06-26T12:11:48;35.30;17.70
18177;DHT22;9213;50.858;3.964;2023-06-26T12:14:17;35.30;17.70
18177;DHT22;9213;50.858;3.964;2023-06-26T12:16:46;35.30;18.00
18177;DHT22;9213;50.858;3.964;2023-06-26T12:19:13;35.20;17.90
18177;DHT22;9213;50.858;3.964;2023-06-26T12:21:46;35.30;18.40
18177;DHT22;9213;50.858;3.964;2023-06-26T12:24:16;35.50;17.70
18177;DHT22;9213;50.858;3.964;2023-06-26T12:26:43;35.80;18.00
18177;DHT22;9213;50.858;3.964;2023-06-26T12:29:13;35.90;17.50
18177;DHT22;9213;50.858;3.964;2023-06-26T12:31:40;36.00;17.50
18177;DHT22;9213;50.858;3.964;2023-06-26T12:34:12;36.00;17.30
18177;DHT22;9213;50.858;3.964;2023-06-26T12:36:43;36.00;17.10
18177;DHT22;9213;50.858;3.964;2023-06-26T12:39:10;35.90;16.80
18177;DHT22;9213;50.858;3.964;2023-06-26T12:41:45;35.80;16.60
18177;DHT22;9213;50.858;3.964;2023-06-26T12:44:24;35.70;16.70
18177;DHT22;9213;50.858;3.964;2023-06-26T12:46:54;35.60;17.30
18177;DHT22;9213;50.858;3.964;2023-06-26T12:49:29;35.50;17.20
18177;DHT22;9213;50.858;3.964;2023-06-26T12:51:58;35.50;16.90
18177;DHT22;9213;50.858;3.964;2023-06-26T12:54:25;35.40;17.00
18177;DHT22;9213;50.858;3.964;2023-06-26T12:56:51;35.30;17.70
18177;DHT22;9213;50.858;3.964;2023-06-26T12:59:18;35.20;17.90
18177;DHT22;9213;50.858;3.964;2023-06-26T13:01:47;35.20;18.20
18177;DHT22;9213;50.858;3.964;2023-06-26T13:04:14;35.20;17.20
18177;DHT22;9213;50.858;3.964;2023-06-26T13:06:41;35.20;17.10
18177;DHT22;9213;50.858;3.964;2023-06-26T13:09:08;35.20;17.10
18177;DHT22;9213;50.858;3.964;2023-06-26T13:11:37;35.20;16.60
18177;DHT22;9213;50.858;3.964;2023-06-26T13:14:04;35.10;16.60
18177;DHT22;9213;50.858;3.964;2023-06-26T13:16:31;35.00;17.00
18177;DHT22;9213;50.858;3.964;2023-06-26T13:18:59;35.10;17.00
18177;DHT22;9213;50.858;3.964;2023-06-26T13:21:27;35.20;17.20
18177;DHT22;9213;50.858;3.964;2023-06-26T13:23:55;35.20;16.50
18177;DHT22;9213;50.858;3.964;2023-06-26T13:26:22;35.30;16.60
18177;DHT22;9213;50.858;3.964;2023-06-26T13:28:51;35.20;16.90
18177;DHT22;9213;50.858;3.964;2023-06-26T13:31:18;35.10;16.10
18177;DHT22;9213;50.858;3.964;2023-06-26T13:33:46;35.10;16.00
18177;DHT22;9213;50.858;3.964;2023-06-26T13:36:15;35.20;15.50
18177;DHT22;9213;50.858;3.964;2023-06-26T13:38:42;35.20;16.10
18177;DHT22;9213;50.858;3.964;2023-06-26T13:41:09;35.10;17.00
18177;DHT22;9213;50.858;3.964;2023-06-26T13:43:36;35.00;17.20
18177;DHT22;9213;50.858;3.964;2023-06-26T13:46:03;35.00;17.00
18177;DHT22;9213;50.858;3.964;2023-06-26T13:48:30;34.90;16.90
18177;DHT22;9213;50.858;3.964;2023-06-26T13:50:58;34.90;16.60
18177;DHT22;9213;50.858;3.964;2023-06-26T13:53:27;34.80;16.30
18177;DHT22;9213;50.858;3.964;2023-06-26T13:55:54;34.70;16.90
18177;DHT22;9213;50.858;3.964;2023-06-26T13:58:21;34.50;17.60
18177;DHT22;9213;50.858;3.964;2023-06-26T14:00:48;34.60;18.10
18177;DHT22;9213;50.858;3.964;2023-06-26T14:03:15;34.60;18.10
18177;DHT22;9213;50.858;3.964;2023-06-26T14:05:43;34.70;17.70
18177;DHT22;9213;50.858;3.964;2023-06-26T14:08:10;34.60;17.50
18177;DHT22;9213;50.858;3.964;2023-06-26T14:10:38;34.60;18.20
18177;DHT22;9213;50.858;3.964;2023-06-26T14:13:05;34.50;18.40
18177;DHT22;9213;50.858;3.964;2023-06-26T14:15:34;34.50;17.90
18177;DHT22;9213;50.858;3.964;2023-06-26T14:18:02;34.40;18.50
18177;DHT22;9213;50.858;3.964;2023-06-26T14:20:29;34.40;18.20
18177;DHT22;9213;50.858;3.964;2023-06-26T14:22:58;34.30;18.00
18177;DHT22;9213;50.858;3.964;2023-06-26T14:25:25;34.10;18.50
18177;DHT22;9213;50.858;3.964;2023-06-26T14:27:55;34.00;18.80
18177;DHT22;9213;50.858;3.964;2023-06-26T14:30:22;33.80;18.40
18177;DHT22;9213;50.858;3.964;2023-06-26T14:32:49;33.70;19.00
18177;DHT22;9213;50.858;3.964;2023-06-26T14:35:16;33.60;19.20
18177;DHT22;9213;50.858;3.964;2023-06-26T14:37:43;33.60;19.60
18177;DHT22;9213;50.858;3.964;2023-06-26T14:40:11;33.50;19.70
18177;DHT22;9213;50.858;3.964;2023-06-26T14:42:38;33.50;19.50
18177;DHT22;9213;50.858;3.964;2023-06-26T14:45:08;33.50;19.60
18177;DHT22;9213;50.858;3.964;2023-06-26T14:47:35;33.50;19.60
18177;DHT22;9213;50.858;3.964;2023-06-26T14:50:02;33.50;19.90
18177;DHT22;9213;50.858;3.964;2023-06-26T14:52:29;33.50;20.00
18177;DHT22;9213;50.858;3.964;2023-06-26T14:54:55;33.60;19.50
18177;DHT22;9213;50.858;3.964;2023-06-26T14:57:22;33.60;19.20
18177;DHT22;9213;50.858;3.964;2023-06-26T14:59:49;33.50;19.70
18177;DHT22;9213;50.858;3.964;2023-06-26T15:02:17;33.50;20.00
18177;DHT22;9213;50.858;3.964;2023-06-26T15:04:44;33.40;19.90
18177;DHT22;9213;50.858;3.964;2023-06-26T15:07:12;33.40;19.80
18177;DHT22;9213;50.858;3.964;2023-06-26T15:09:39;33.50;19.50
18177;DHT22;9213;50.858;3.964;2023-06-26T15:12:06;33.60;19.70
18177;DHT22;9213;50.858;3.964;2023-06-26T15:14:33;33.50;19.30
18177;DHT22;9213;50.858;3.964;2023-06-26T15:17:00;33.40;19.40
18177;DHT22;9213;50.858;3.964;2023-06-26T15:19:28;33.30;19.60
18177;DHT22;9213;50.858;3.964;2023-06-26T15:21:55;33.20;19.60
18177;DHT22;9213;50.858;3.964;2023-06-26T15:24:22;33.10;19.40
18177;DHT22;9213;50.858;3.964;2023-06-26T15:26:49;33.10;19.50
18177;DHT22;9213;50.858;3.964;2023-06-26T15:29:16;33.00;19.30
18177;DHT22;9213;50.858;3.964;2023-06-26T15:31:44;32.90;19.10
18177;DHT22;9213;50.858;3.964;2023-06-26T15:34:11;32.90;18.90
18177;DHT22;9213;50.858;3.964;2023-06-26T15:36:40;32.80;19.10
18177;DHT22;9213;50.858;3.964;2023-06-26T15:39:07;32.80;19.00
18177;DHT22;9213;50.858;3.964;2023-06-26T15:41:34;32.80;18.80
18177;DHT22;9213;50.858;3.964;2023-06-26T15:44:02;32.80;19.10
18177;DHT22;9213;50.858;3.964;2023-06-26T15:46:29;32.80;19.00
18177;DHT22;9213;50.858;3.964;2023-06-26T15:48:56;32.80;18.60